createdAt,value
2019-04-11T00:04:52.708Z,1.40
2019-04-11T00:09:58.758Z,1.40
2019-04-11T00:15:04.434Z,1.40
2019-04-11T00:20:09.668Z,1.40
2019-04-11T00:25:15.604Z,1.40
2019-04-11T00:30:20.569Z,1.40
2019-04-11T00:35:25.900Z,1.50
2019-04-11T00:40:31.181Z,1.40
2019-04-11T00:45:36.063Z,1.40
2019-04-11T00:50:40.897Z,1.30
2019-04-11T00:55:46.011Z,1.30
2019-04-11T01:00:53.510Z,1.20
2019-04-11T01:05:59.064Z,1.10
2019-04-11T01:11:05.772Z,1.00
2019-04-11T01:21:38.042Z,0.90
2019-04-11T01:26:43.491Z,0.90
2019-04-11T01:31:55.922Z,0.80
2019-04-11T01:37:01.668Z,0.70
2019-04-11T01:42:07.108Z,0.70
2019-04-11T01:47:14.924Z,0.70
2019-04-11T01:52:20.344Z,0.60
2019-04-11T01:57:25.630Z,0.50
2019-04-11T02:07:35.072Z,0.50
2019-04-11T02:12:40.017Z,0.40
2019-04-11T02:17:45.197Z,0.40
2019-04-11T02:22:54.968Z,0.30
2019-04-11T02:28:01.601Z,0.30
2019-04-11T02:33:07.252Z,0.20
2019-04-11T02:38:14.855Z,0.10
2019-04-11T02:43:20.442Z,0.00
2019-04-11T02:48:26.892Z,-0.10
2019-04-11T02:53:32.761Z,-0.10
2019-04-11T02:58:39.265Z,-0.10
2019-04-11T03:03:45.524Z,-0.20
2019-04-11T03:08:50.871Z,-0.20
2019-04-11T03:13:58.155Z,-0.20
2019-04-11T03:19:19.269Z,-0.20
2019-04-11T03:24:10.957Z,-0.20
2019-04-11T03:29:17.616Z,-0.20
2019-04-11T03:35:30.950Z,-0.20
2019-04-11T03:39:52.712Z,-0.30
2019-04-11T03:44:43.785Z,-0.30
2019-04-11T03:49:51.400Z,-0.30
2019-04-11T03:54:49.792Z,-0.20
2019-04-11T03:59:56.551Z,-0.30
2019-04-11T04:05:03.766Z,-0.30
2019-04-11T04:10:11.492Z,-0.40
2019-04-11T04:15:47.178Z,-0.40
2019-04-11T04:20:54.851Z,-0.30
2019-04-11T04:26:01.143Z,-0.30
2019-04-11T04:31:07.444Z,-0.40
2019-04-11T04:36:15.297Z,-0.30
2019-04-11T04:41:30.763Z,-0.30
2019-04-11T04:46:43.550Z,-0.30
2019-04-11T04:51:37.279Z,-0.10
2019-04-11T04:56:43.712Z,0.00
2019-04-11T05:01:48.614Z,0.10
2019-04-11T05:06:54.907Z,0.20
2019-04-11T05:12:01.277Z,0.30
2019-04-11T05:17:06.715Z,0.40
2019-04-11T05:22:12.619Z,0.60
2019-04-11T05:27:17.765Z,0.70
2019-04-11T05:32:22.517Z,0.80
2019-04-11T05:37:27.345Z,0.90
2019-04-11T05:42:35.446Z,1.00
2019-04-11T05:47:40.318Z,1.20
2019-04-11T05:52:45.128Z,1.30
2019-04-11T05:57:50.222Z,1.50
2019-04-11T06:02:57.537Z,1.80
2019-04-11T06:08:05.550Z,2.00
2019-04-11T06:13:19.063Z,2.20
2019-04-11T06:18:41.904Z,2.50
2019-04-11T06:23:49.882Z,2.70
2019-04-11T06:28:56.994Z,2.80
2019-04-11T06:34:04.955Z,3.00
2019-04-11T06:44:29.977Z,3.30
2019-04-11T06:49:46.747Z,3.50
2019-04-11T06:54:56.576Z,3.60
2019-04-11T07:00:03.226Z,3.70
2019-04-11T07:05:10.758Z,3.90
2019-04-11T07:10:17.973Z,4.00
2019-04-11T07:15:25.130Z,3.80
2019-04-11T07:20:37.879Z,3.90
2019-04-11T07:26:02.425Z,3.70
2019-04-11T07:31:21.695Z,3.90
2019-04-11T07:36:45.957Z,4.00
2019-04-11T07:41:56.156Z,4.10
2019-04-11T07:47:17.139Z,4.50
2019-04-11T07:52:22.493Z,5.10
2019-04-11T07:57:38.375Z,5.60
2019-04-11T08:02:48.084Z,5.90
2019-04-11T08:08:11.071Z,5.70
2019-04-11T08:13:30.386Z,5.50
2019-04-11T08:18:41.069Z,5.30
2019-04-11T08:23:47.747Z,4.70
2019-04-11T08:29:01.415Z,4.50
2019-04-11T08:33:59.873Z,4.30
2019-04-11T08:39:08.943Z,4.50
2019-04-11T08:44:25.981Z,4.70
2019-04-11T08:49:37.587Z,5.00
2019-04-11T08:55:00.426Z,5.10
2019-04-11T09:00:28.267Z,5.00
2019-04-11T09:05:41.006Z,5.00
2019-04-11T09:10:58.094Z,5.00
2019-04-11T09:16:21.611Z,5.10
2019-04-11T09:21:46.653Z,5.10
2019-04-11T09:27:00.266Z,5.20
2019-04-11T09:32:25.099Z,5.40
2019-04-11T09:37:30.451Z,5.50
2019-04-11T09:42:43.107Z,5.60
2019-04-11T09:48:11.611Z,5.60
2019-04-11T09:53:14.148Z,5.60
2019-04-11T09:58:27.512Z,5.70
2019-04-11T10:03:36.582Z,5.80
2019-04-11T10:08:43.661Z,5.50
2019-04-11T10:13:53.283Z,5.40
2019-04-11T10:19:15.797Z,5.30
2019-04-11T10:30:10.258Z,5.00
2019-04-11T10:35:22.558Z,5.10
2019-04-11T10:40:34.939Z,4.90
2019-04-11T10:45:42.667Z,5.00
2019-04-11T10:51:08.749Z,5.20
2019-04-11T10:56:24.585Z,5.30
2019-04-11T11:01:31.732Z,5.40
2019-04-11T11:06:37.923Z,5.60
2019-04-11T11:11:44.795Z,5.60
2019-04-11T11:17:00.330Z,5.80
2019-04-11T11:22:10.457Z,5.60
2019-04-11T11:27:16.856Z,5.50
2019-04-11T11:32:22.057Z,5.60
2019-04-11T11:37:31.317Z,5.60
2019-04-11T11:42:40.358Z,5.50
2019-04-11T11:47:59.964Z,5.50
2019-04-11T11:53:12.696Z,5.50
2019-04-11T11:58:33.423Z,5.50
2019-04-11T12:03:40.719Z,5.50
2019-04-11T12:08:51.327Z,5.70
2019-04-11T12:13:58.156Z,5.80
2019-04-11T12:19:04.734Z,5.70
2019-04-11T12:24:27.920Z,5.70
2019-04-11T12:29:42.590Z,5.70
2019-04-11T12:35:06.648Z,5.70
2019-04-11T12:40:16.112Z,5.80
2019-04-11T12:45:34.376Z,5.90
2019-04-11T12:50:56.034Z,5.70
2019-04-11T12:56:11.622Z,5.70
2019-04-11T13:01:24.080Z,5.70
2019-04-11T13:06:35.504Z,5.70
2019-04-11T13:11:41.348Z,5.70
2019-04-11T13:16:47.808Z,5.70
2019-04-11T13:21:54.212Z,5.70
2019-04-11T13:27:00.785Z,5.60
2019-04-11T13:32:23.747Z,5.60
2019-04-11T13:38:09.579Z,5.60
2019-04-11T13:43:28.949Z,5.50
2019-04-11T13:48:51.904Z,5.40
2019-04-11T13:53:59.851Z,5.50
2019-04-11T13:59:17.068Z,5.40
2019-04-11T14:04:23.637Z,5.50
2019-04-11T14:09:30.759Z,5.50
2019-04-11T14:14:36.193Z,5.60
2019-04-11T14:19:42.668Z,5.70
2019-04-11T14:24:51.826Z,5.60
2019-04-11T14:30:07.413Z,5.60
2019-04-11T14:35:16.954Z,5.60
2019-04-11T14:40:29.271Z,5.40
2019-04-11T14:45:44.821Z,5.30
2019-04-11T14:51:03.269Z,5.30
2019-04-11T14:56:12.360Z,5.20
2019-04-11T15:01:18.052Z,5.10
2019-04-11T15:06:24.525Z,5.00
2019-04-11T15:11:30.989Z,5.00
2019-04-11T15:16:49.369Z,4.80
2019-04-11T15:22:06.283Z,4.70
2019-04-11T15:27:29.315Z,4.70
2019-04-11T15:32:52.089Z,4.70
2019-04-11T15:38:01.365Z,4.70
2019-04-11T15:43:11.868Z,4.70
2019-04-11T15:48:35.012Z,4.70
2019-04-11T15:53:47.827Z,4.70
2019-04-11T15:59:00.414Z,4.80
2019-04-11T16:04:23.901Z,4.80
2019-04-11T16:09:28.724Z,4.70
2019-04-11T16:14:33.552Z,4.70
2019-04-11T16:19:40.049Z,4.70
2019-04-11T16:24:46.443Z,4.50
2019-04-11T16:29:52.949Z,4.50
2019-04-11T16:35:02.453Z,4.40
2019-04-11T16:40:24.358Z,4.40
2019-04-11T16:45:43.061Z,4.30
2019-04-11T16:50:47.825Z,4.30
2019-04-11T16:55:53.866Z,4.30
2019-04-11T17:00:58.884Z,4.30
2019-04-11T17:06:08.381Z,4.30
2019-04-11T17:11:14.882Z,4.20
2019-04-11T17:16:19.810Z,4.20
2019-04-11T17:21:24.685Z,4.20
2019-04-11T17:26:29.710Z,4.20
2019-04-11T17:31:34.585Z,4.20
2019-04-11T17:36:39.458Z,4.10
2019-04-11T17:41:44.417Z,4.10
2019-04-11T17:46:49.308Z,4.00
2019-04-11T17:51:55.997Z,4.00
2019-04-11T17:57:01.561Z,4.00
2019-04-11T18:02:11.129Z,3.90
2019-04-11T18:07:17.569Z,3.90
2019-04-11T18:12:23.823Z,3.90
2019-04-11T18:17:29.075Z,3.80
2019-04-11T18:22:50.165Z,3.80
2019-04-11T18:27:53.197Z,3.80
2019-04-11T18:33:10.296Z,3.80
2019-04-11T18:38:15.144Z,3.80
2019-04-11T18:43:19.972Z,3.80
2019-04-11T18:48:24.835Z,3.80
2019-04-11T18:53:29.598Z,3.70
2019-04-11T18:58:34.649Z,3.70
2019-04-11T19:03:41.351Z,3.70
2019-04-11T19:08:46.068Z,3.60
2019-04-11T19:13:51.674Z,3.60
2019-04-11T19:18:56.739Z,3.60
2019-04-11T19:24:01.615Z,3.60
2019-04-11T19:29:06.450Z,3.60
2019-04-11T19:34:11.286Z,3.60
2019-04-11T19:39:17.133Z,3.60
2019-04-11T19:44:21.902Z,3.50
2019-04-11T19:49:28.802Z,3.60
2019-04-11T19:54:33.604Z,3.50
2019-04-11T19:59:38.668Z,3.50
2019-04-11T20:04:43.417Z,3.50
2019-04-11T20:09:48.282Z,3.50
2019-04-11T20:14:55.049Z,3.50
2019-04-11T20:20:01.576Z,3.40
2019-04-11T20:25:07.352Z,3.40
2019-04-11T20:30:12.276Z,3.40
2019-04-11T20:35:28.264Z,3.40
2019-04-11T20:40:23.924Z,3.40
2019-04-11T20:45:30.413Z,3.40
2019-04-11T20:50:35.182Z,3.30
2019-04-11T20:55:40.084Z,3.40
2019-04-11T21:00:50.660Z,3.30
2019-04-11T21:05:51.542Z,3.20
2019-04-11T21:10:56.402Z,3.20
2019-04-11T21:16:01.245Z,3.20
2019-04-11T21:21:06.092Z,3.20
2019-04-11T21:26:10.946Z,3.20
2019-04-11T21:31:15.739Z,3.20
2019-04-11T21:36:20.565Z,3.20
2019-04-11T21:41:25.601Z,3.20
2019-04-11T21:46:31.573Z,3.20
2019-04-11T21:51:41.479Z,3.20
2019-04-11T21:56:43.292Z,3.20
2019-04-11T22:01:48.332Z,3.10
2019-04-11T22:06:53.199Z,3.10
2019-04-11T22:11:58.149Z,3.10
2019-04-11T22:17:03.103Z,3.10
2019-04-11T22:22:08.027Z,3.10
2019-04-11T22:27:12.986Z,3.10
2019-04-11T22:32:17.929Z,3.10
2019-04-11T22:37:22.777Z,3.10
2019-04-11T22:42:28.033Z,3.10
2019-04-11T22:47:32.884Z,3.00
2019-04-11T22:52:39.792Z,3.10
2019-04-11T22:57:44.385Z,3.00
2019-04-11T23:02:53.621Z,3.00
2019-04-11T23:07:58.505Z,3.00
2019-04-11T23:13:03.338Z,3.00
2019-04-11T23:18:08.084Z,3.00
2019-04-11T23:23:14.046Z,2.90
2019-04-11T23:28:19.344Z,2.90
2019-04-11T23:33:24.173Z,3.00
2019-04-11T23:38:29.033Z,2.90
2019-04-11T23:43:34.333Z,2.90
2019-04-11T23:48:39.161Z,2.90
2019-04-11T23:53:43.923Z,2.90
2019-04-11T23:58:48.669Z,3.00
